sensor_id;sensor_type;location;lat;lon;timestamp;P1;durP1;ratioP1;P2;durP2;ratioP2
25667;SDS011;18003;-33.830;151.202;2023-10-08T00:00:14;4.60;;;2.98;;
25667;SDS011;18003;-33.830;151.202;2023-10-08T00:03:01;4.35;;;2.33;;
25667;SDS011;18003;-33.830;151.202;2023-10-08T00:05:35;3.20;;;2.60;;
25667;SDS011;18003;-33.830;151.202;2023-10-08T00:08:07;5.03;;;2.90;;
25667;SDS011;18003;-33.830;151.202;2023-10-08T00:10:42;3.20;;;2.80;;
25667;SDS011;18003;-33.830;151.202;2023-10-08T00:13:09;3.75;;;2.85;;
25667;SDS011;18003;-33.830;151.202;2023-10-08T00:15:42;3.92;;;3.05;;
25667;SDS011;18003;-33.830;151.202;2023-10-08T00:18:22;3.75;;;3.45;;
25667;SDS011;18003;-33.830;151.202;2023-10-08T00:20:54;3.52;;;3.08;;
25667;SDS011;18003;-33.830;151.202;2023-10-08T00:23:28;6.15;;;4.00;;
25667;SDS011;18003;-33.830;151.202;2023-10-08T00:26:00;4.25;;;3.87;;
25667;SDS011;18003;-33.830;151.202;2023-10-08T00:28:31;6.20;;;3.52;;
25667;SDS011;18003;-33.830;151.202;2023-10-08T00:31:04;5.47;;;3.10;;
25667;SDS011;18003;-33.830;151.202;2023-10-08T00:33:40;4.40;;;3.02;;
25667;SDS011;18003;-33.830;151.202;2023-10-08T00:36:11;3.37;;;2.80;;
25667;SDS011;18003;-33.830;151.202;2023-10-08T00:38:47;4.47;;;2.83;;
25667;SDS011;18003;-33.830;151.202;2023-10-08T00:41:18;5.65;;;3.33;;
25667;SDS011;18003;-33.830;151.202;2023-10-08T00:43:49;3.62;;;3.10;;
25667;SDS011;18003;-33.830;151.202;2023-10-08T00:46:20;3.30;;;3.00;;
25667;SDS011;18003;-33.830;151.202;2023-10-08T00:48:53;5.00;;;3.37;;
25667;SDS011;18003;-33.830;151.202;2023-10-08T00:51:23;5.80;;;3.80;;
25667;SDS011;18003;-33.830;151.202;2023-10-08T00:54:03;4.12;;;3.42;;
25667;SDS011;18003;-33.830;151.202;2023-10-08T00:56:34;5.17;;;2.87;;
25667;SDS011;18003;-33.830;151.202;2023-10-08T00:59:21;4.45;;;3.00;;
25667;SDS011;18003;-33.830;151.202;2023-10-08T01:01:52;4.83;;;3.30;;
25667;SDS011;18003;-33.830;151.202;2023-10-08T01:06:57;4.08;;;3.40;;
25667;SDS011;18003;-33.830;151.202;2023-10-08T01:09:31;4.35;;;3.35;;
25667;SDS011;18003;-33.830;151.202;2023-10-08T01:12:13;4.12;;;3.00;;
25667;SDS011;18003;-33.830;151.202;2023-10-08T01:15:04;3.87;;;3.47;;
25667;SDS011;18003;-33.830;151.202;2023-10-08T01:17:38;3.37;;;3.10;;
25667;SDS011;18003;-33.830;151.202;2023-10-08T01:20:10;4.40;;;3.17;;
25667;SDS011;18003;-33.830;151.202;2023-10-08T01:22:58;3.17;;;2.50;;
25667;SDS011;18003;-33.830;151.202;2023-10-08T01:25:30;5.28;;;2.80;;
25667;SDS011;18003;-33.830;151.202;2023-10-08T01:28:01;3.55;;;2.15;;
25667;SDS011;18003;-33.830;151.202;2023-10-08T01:30:49;2.62;;;2.08;;
25667;SDS011;18003;-33.830;151.202;2023-10-08T01:33:21;6.00;;;2.22;;
25667;SDS011;18003;-33.830;151.202;2023-10-08T01:35:52;4.95;;;2.80;;
25667;SDS011;18003;-33.830;151.202;2023-10-08T01:38:24;3.87;;;2.80;;
25667;SDS011;18003;-33.830;151.202;2023-10-08T01:40:54;10.53;;;3.30;;
25667;SDS011;18003;-33.830;151.202;2023-10-08T01:45:56;6.67;;;3.17;;
25667;SDS011;18003;-33.830;151.202;2023-10-08T01:48:26;9.43;;;3.90;;
25667;SDS011;18003;-33.830;151.202;2023-10-08T01:50:57;6.87;;;3.80;;
25667;SDS011;18003;-33.830;151.202;2023-10-08T01:53:32;3.72;;;3.30;;
25667;SDS011;18003;-33.830;151.202;2023-10-08T01:56:03;4.67;;;3.17;;
25667;SDS011;18003;-33.830;151.202;2023-10-08T01:58:33;5.35;;;3.25;;
25667;SDS011;18003;-33.830;151.202;2023-10-08T02:01:03;3.92;;;3.42;;
25667;SDS011;18003;-33.830;151.202;2023-10-08T02:03:35;5.45;;;2.90;;
25667;SDS011;18003;-33.830;151.202;2023-10-08T02:06:05;4.53;;;2.62;;
25667;SDS011;18003;-33.830;151.202;2023-10-08T02:08:35;3.90;;;2.85;;
25667;SDS011;18003;-33.830;151.202;2023-10-08T02:11:06;3.45;;;2.67;;
25667;SDS011;18003;-33.830;151.202;2023-10-08T02:13:37;2.92;;;2.60;;
25667;SDS011;18003;-33.830;151.202;2023-10-08T02:16:11;3.65;;;3.30;;
25667;SDS011;18003;-33.830;151.202;2023-10-08T02:18:43;4.05;;;3.25;;
25667;SDS011;18003;-33.830;151.202;2023-10-08T02:21:13;5.45;;;3.50;;
25667;SDS011;18003;-33.830;151.202;2023-10-08T02:23:43;5.35;;;3.20;;
25667;SDS011;18003;-33.830;151.202;2023-10-08T02:26:15;5.00;;;3.52;;
25667;SDS011;18003;-33.830;151.202;2023-10-08T02:28:48;5.67;;;3.80;;
25667;SDS011;18003;-33.830;151.202;2023-10-08T02:31:19;5.47;;;3.60;;
25667;SDS011;18003;-33.830;151.202;2023-10-08T02:33:49;5.22;;;3.40;;
25667;SDS011;18003;-33.830;151.202;2023-10-08T02:36:20;3.72;;;3.42;;
25667;SDS011;18003;-33.830;151.202;2023-10-08T02:38:50;5.17;;;3.20;;
25667;SDS011;18003;-33.830;151.202;2023-10-08T02:41:21;4.75;;;3.50;;
25667;SDS011;18003;-33.830;151.202;2023-10-08T02:43:51;4.28;;;3.70;;
25667;SDS011;18003;-33.830;151.202;2023-10-08T02:46:23;6.62;;;4.10;;
25667;SDS011;18003;-33.830;151.202;2023-10-08T02:48:54;3.70;;;3.50;;
25667;SDS011;18003;-33.830;151.202;2023-10-08T02:51:25;7.67;;;4.12;;
25667;SDS011;18003;-33.830;151.202;2023-10-08T02:53:55;3.92;;;3.55;;
25667;SDS011;18003;-33.830;151.202;2023-10-08T02:56:25;4.92;;;3.52;;
25667;SDS011;18003;-33.830;151.202;2023-10-08T02:58:57;3.98;;;3.52;;
25667;SDS011;18003;-33.830;151.202;2023-10-08T03:01:28;4.17;;;3.77;;
25667;SDS011;18003;-33.830;151.202;2023-10-08T03:03:59;4.62;;;3.67;;
25667;SDS011;18003;-33.830;151.202;2023-10-08T03:06:31;4.03;;;3.65;;
25667;SDS011;18003;-33.830;151.202;2023-10-08T03:11:32;4.78;;;3.30;;
25667;SDS011;18003;-33.830;151.202;2023-10-08T03:14:03;5.90;;;3.67;;
25667;SDS011;18003;-33.830;151.202;2023-10-08T03:19:04;3.55;;;3.22;;
25667;SDS011;18003;-33.830;151.202;2023-10-08T03:21:40;9.38;;;3.92;;
25667;SDS011;18003;-33.830;151.202;2023-10-08T03:24:07;4.37;;;3.75;;
25667;SDS011;18003;-33.830;151.202;2023-10-08T03:26:41;6.58;;;3.90;;
25667;SDS011;18003;-33.830;151.202;2023-10-08T03:29:11;4.12;;;3.67;;
25667;SDS011;18003;-33.830;151.202;2023-10-08T03:31:46;3.92;;;3.50;;
25667;SDS011;18003;-33.830;151.202;2023-10-08T03:36:47;3.70;;;3.40;;
25667;SDS011;18003;-33.830;151.202;2023-10-08T03:39:17;4.20;;;3.60;;
25667;SDS011;18003;-33.830;151.202;2023-10-08T03:41:47;4.92;;;3.70;;
25667;SDS011;18003;-33.830;151.202;2023-10-08T03:44:27;7.12;;;3.70;;
25667;SDS011;18003;-33.830;151.202;2023-10-08T03:46:56;5.87;;;2.98;;
25667;SDS011;18003;-33.830;151.202;2023-10-08T03:49:26;5.30;;;3.20;;
25667;SDS011;18003;-33.830;151.202;2023-10-08T03:51:57;4.65;;;3.40;;
25667;SDS011;18003;-33.830;151.202;2023-10-08T03:54:28;3.45;;;3.22;;
25667;SDS011;18003;-33.830;151.202;2023-10-08T03:57:02;4.33;;;3.60;;
25667;SDS011;18003;-33.830;151.202;2023-10-08T04:02:03;4.05;;;3.47;;
25667;SDS011;18003;-33.830;151.202;2023-10-08T04:04:44;4.10;;;3.70;;
25667;SDS011;18003;-33.830;151.202;2023-10-08T04:07:22;6.12;;;3.02;;
25667;SDS011;18003;-33.830;151.202;2023-10-08T04:09:53;3.35;;;2.90;;
25667;SDS011;18003;-33.830;151.202;2023-10-08T04:12:38;3.67;;;2.90;;
25667;SDS011;18003;-33.830;151.202;2023-10-08T04:15:13;3.65;;;3.35;;
25667;SDS011;18003;-33.830;151.202;2023-10-08T04:17:43;4.72;;;3.55;;
25667;SDS011;18003;-33.830;151.202;2023-10-08T04:20:14;6.30;;;3.95;;
25667;SDS011;18003;-33.830;151.202;2023-10-08T04:23:02;5.35;;;3.30;;
25667;SDS011;18003;-33.830;151.202;2023-10-08T04:25:35;4.47;;;3.70;;
25667;SDS011;18003;-33.830;151.202;2023-10-08T04:28:06;3.98;;;3.58;;
25667;SDS011;18003;-33.830;151.202;2023-10-08T04:33:08;4.50;;;4.10;;
25667;SDS011;18003;-33.830;151.202;2023-10-08T04:35:41;5.47;;;3.90;;
25667;SDS011;18003;-33.830;151.202;2023-10-08T04:38:22;5.72;;;3.80;;
25667;SDS011;18003;-33.830;151.202;2023-10-08T04:40:53;6.70;;;4.22;;
25667;SDS011;18003;-33.830;151.202;2023-10-08T04:43:24;4.55;;;4.15;;
25667;SDS011;18003;-33.830;151.202;2023-10-08T04:45:58;4.35;;;3.95;;
25667;SDS011;18003;-33.830;151.202;2023-10-08T04:48:32;3.60;;;3.30;;
25667;SDS011;18003;-33.830;151.202;2023-10-08T04:51:03;3.90;;;3.58;;
25667;SDS011;18003;-33.830;151.202;2023-10-08T04:53:35;4.85;;;3.80;;
25667;SDS011;18003;-33.830;151.202;2023-10-08T04:56:11;3.77;;;3.33;;
25667;SDS011;18003;-33.830;151.202;2023-10-08T04:58:46;5.55;;;3.37;;
25667;SDS011;18003;-33.830;151.202;2023-10-08T05:01:18;3.55;;;3.27;;
25667;SDS011;18003;-33.830;151.202;2023-10-08T05:03:50;4.90;;;3.55;;
25667;SDS011;18003;-33.830;151.202;2023-10-08T05:06:28;3.70;;;3.37;;
25667;SDS011;18003;-33.830;151.202;2023-10-08T05:09:06;6.20;;;3.92;;
25667;SDS011;18003;-33.830;151.202;2023-10-08T05:11:38;6.80;;;3.40;;
25667;SDS011;18003;-33.830;151.202;2023-10-08T05:14:19;3.58;;;3.20;;
25667;SDS011;18003;-33.830;151.202;2023-10-08T05:16:57;3.72;;;3.42;;
25667;SDS011;18003;-33.830;151.202;2023-10-08T05:19:46;3.92;;;3.65;;
25667;SDS011;18003;-33.830;151.202;2023-10-08T05:22:24;3.90;;;3.47;;
25667;SDS011;18003;-33.830;151.202;2023-10-08T05:24:56;4.20;;;3.55;;
25667;SDS011;18003;-33.830;151.202;2023-10-08T05:27:37;4.00;;;3.50;;
25667;SDS011;18003;-33.830;151.202;2023-10-08T05:30:20;3.95;;;3.50;;
25667;SDS011;18003;-33.830;151.202;2023-10-08T05:33:08;7.08;;;3.70;;
25667;SDS011;18003;-33.830;151.202;2023-10-08T05:35:47;4.90;;;3.40;;
25667;SDS011;18003;-33.830;151.202;2023-10-08T05:38:22;4.85;;;3.60;;
25667;SDS011;18003;-33.830;151.202;2023-10-08T05:40:52;3.83;;;3.42;;
25667;SDS011;18003;-33.830;151.202;2023-10-08T05:43:36;5.60;;;3.72;;
25667;SDS011;18003;-33.830;151.202;2023-10-08T05:46:10;5.28;;;3.50;;
25667;SDS011;18003;-33.830;151.202;2023-10-08T05:48:51;3.55;;;3.25;;
25667;SDS011;18003;-33.830;151.202;2023-10-08T05:51:42;4.40;;;3.10;;
25667;SDS011;18003;-33.830;151.202;2023-10-08T05:54:22;4.47;;;3.20;;
25667;SDS011;18003;-33.830;151.202;2023-10-08T05:56:54;4.25;;;3.25;;
25667;SDS011;18003;-33.830;151.202;2023-10-08T05:59:39;3.45;;;3.22;;
25667;SDS011;18003;-33.830;151.202;2023-10-08T06:02:26;3.80;;;3.50;;
25667;SDS011;18003;-33.830;151.202;2023-10-08T06:05:02;4.33;;;3.40;;
25667;SDS011;18003;-33.830;151.202;2023-10-08T06:07:53;12.88;;;4.00;;
25667;SDS011;18003;-33.830;151.202;2023-10-08T06:10:22;13.60;;;3.80;;
25667;SDS011;18003;-33.830;151.202;2023-10-08T06:13:06;10.75;;;3.58;;
25667;SDS011;18003;-33.830;151.202;2023-10-08T06:15:38;5.33;;;3.30;;
25667;SDS011;18003;-33.830;151.202;2023-10-08T06:18:17;7.67;;;3.77;;
25667;SDS011;18003;-33.830;151.202;2023-10-08T06:20:48;4.10;;;3.47;;
25667;SDS011;18003;-33.830;151.202;2023-10-08T06:23:20;4.28;;;3.67;;
25667;SDS011;18003;-33.830;151.202;2023-10-08T06:25:51;3.80;;;3.50;;
25667;SDS011;18003;-33.830;151.202;2023-10-08T06:28:23;3.70;;;3.40;;
25667;SDS011;18003;-33.830;151.202;2023-10-08T06:30:54;3.70;;;3.40;;
25667;SDS011;18003;-33.830;151.202;2023-10-08T06:33:25;3.50;;;3.20;;
25667;SDS011;18003;-33.830;151.202;2023-10-08T06:36:00;3.65;;;3.10;;
25667;SDS011;18003;-33.830;151.202;2023-10-08T06:38:32;6.22;;;3.30;;
25667;SDS011;18003;-33.830;151.202;2023-10-08T06:41:04;5.00;;;3.05;;
25667;SDS011;18003;-33.830;151.202;2023-10-08T06:43:40;3.70;;;3.40;;
25667;SDS011;18003;-33.830;151.202;2023-10-08T06:46:12;3.60;;;3.30;;
25667;SDS011;18003;-33.830;151.202;2023-10-08T06:48:45;3.85;;;3.45;;
25667;SDS011;18003;-33.830;151.202;2023-10-08T06:51:15;3.47;;;3.27;;
25667;SDS011;18003;-33.830;151.202;2023-10-08T06:53:47;3.90;;;3.60;;
25667;SDS011;18003;-33.830;151.202;2023-10-08T06:56:17;3.83;;;3.52;;
25667;SDS011;18003;-33.830;151.202;2023-10-08T06:58:47;3.95;;;3.60;;
25667;SDS011;18003;-33.830;151.202;2023-10-08T07:01:22;5.42;;;3.72;;
25667;SDS011;18003;-33.830;151.202;2023-10-08T07:03:54;3.60;;;3.30;;
25667;SDS011;18003;-33.830;151.202;2023-10-08T07:06:24;3.95;;;3.45;;
25667;SDS011;18003;-33.830;151.202;2023-10-08T07:09:01;3.47;;;3.20;;
25667;SDS011;18003;-33.830;151.202;2023-10-08T07:11:27;4.08;;;3.55;;
25667;SDS011;18003;-33.830;151.202;2023-10-08T07:13:58;6.70;;;3.50;;
25667;SDS011;18003;-33.830;151.202;2023-10-08T07:16:28;3.05;;;2.85;;
25667;SDS011;18003;-33.830;151.202;2023-10-08T07:18:59;3.30;;;2.90;;
25667;SDS011;18003;-33.830;151.202;2023-10-08T07:21:30;2.65;;;2.42;;
25667;SDS011;18003;-33.830;151.202;2023-10-08T07:24:08;3.55;;;2.60;;
25667;SDS011;18003;-33.830;151.202;2023-10-08T07:26:39;3.37;;;2.42;;
25667;SDS011;18003;-33.830;151.202;2023-10-08T07:29:10;2.55;;;2.27;;
25667;SDS011;18003;-33.830;151.202;2023-10-08T07:34:12;3.00;;;2.22;;
25667;SDS011;18003;-33.830;151.202;2023-10-08T07:36:45;2.52;;;2.05;;
25667;SDS011;18003;-33.830;151.202;2023-10-08T07:39:18;2.62;;;2.42;;
25667;SDS011;18003;-33.830;151.202;2023-10-08T07:42:01;2.27;;;2.00;;
25667;SDS011;18003;-33.830;151.202;2023-10-08T07:44:35;3.17;;;2.50;;
25667;SDS011;18003;-33.830;151.202;2023-10-08T07:47:06;3.50;;;2.30;;
25667;SDS011;18003;-33.830;151.202;2023-10-08T07:49:41;3.90;;;2.65;;
25667;SDS011;18003;-33.830;151.202;2023-10-08T07:52:11;3.50;;;1.87;;
25667;SDS011;18003;-33.830;151.202;2023-10-08T07:54:45;2.20;;;1.90;;
25667;SDS011;18003;-33.830;151.202;2023-10-08T07:59:47;2.50;;;2.30;;
25667;SDS011;18003;-33.830;151.202;2023-10-08T08:02:19;2.37;;;2.27;;
25667;SDS011;18003;-33.830;151.202;2023-10-08T08:07:20;2.70;;;2.50;;
25667;SDS011;18003;-33.830;151.202;2023-10-08T08:09:51;2.92;;;2.60;;
25667;SDS011;18003;-33.830;151.202;2023-10-08T08:12:29;5.72;;;2.80;;
25667;SDS011;18003;-33.830;151.202;2023-10-08T08:14:59;3.15;;;2.70;;
25667;SDS011;18003;-33.830;151.202;2023-10-08T08:17:31;3.35;;;2.77;;
25667;SDS011;18003;-33.830;151.202;2023-10-08T08:20:02;2.77;;;2.50;;
25667;SDS011;18003;-33.830;151.202;2023-10-08T08:22:39;4.33;;;3.30;;
25667;SDS011;18003;-33.830;151.202;2023-10-08T08:25:06;2.67;;;2.45;;
25667;SDS011;18003;-33.830;151.202;2023-10-08T08:27:43;4.12;;;2.37;;
25667;SDS011;18003;-33.830;151.202;2023-10-08T08:30:13;2.85;;;2.65;;
25667;SDS011;18003;-33.830;151.202;2023-10-08T08:32:44;3.35;;;2.47;;
25667;SDS011;18003;-33.830;151.202;2023-10-08T08:35:15;2.60;;;2.40;;
25667;SDS011;18003;-33.830;151.202;2023-10-08T08:37:46;2.67;;;2.33;;
25667;SDS011;18003;-33.830;151.202;2023-10-08T08:40:21;3.92;;;2.60;;
25667;SDS011;18003;-33.830;151.202;2023-10-08T08:42:52;3.17;;;2.77;;
25667;SDS011;18003;-33.830;151.202;2023-10-08T08:45:23;2.87;;;2.58;;
25667;SDS011;18003;-33.830;151.202;2023-10-08T08:50:25;3.20;;;2.90;;
25667;SDS011;18003;-33.830;151.202;2023-10-08T08:52:56;3.70;;;3.40;;
25667;SDS011;18003;-33.830;151.202;2023-10-08T08:55:26;3.45;;;2.92;;
25667;SDS011;18003;-33.830;151.202;2023-10-08T08:57:59;3.25;;;3.00;;
25667;SDS011;18003;-33.830;151.202;2023-10-08T09:03:00;3.67;;;3.15;;
25667;SDS011;18003;-33.830;151.202;2023-10-08T09:05:31;4.25;;;3.17;;
25667;SDS011;18003;-33.830;151.202;2023-10-08T09:08:03;3.20;;;3.00;;
25667;SDS011;18003;-33.830;151.202;2023-10-08T09:10:34;3.45;;;3.10;;
25667;SDS011;18003;-33.830;151.202;2023-10-08T09:13:06;3.50;;;3.20;;
25667;SDS011;18003;-33.830;151.202;2023-10-08T09:15:38;3.10;;;2.80;;
25667;SDS011;18003;-33.830;151.202;2023-10-08T09:18:08;4.22;;;3.50;;
25667;SDS011;18003;-33.830;151.202;2023-10-08T09:20:40;3.83;;;3.25;;
25667;SDS011;18003;-33.830;151.202;2023-10-08T09:23:11;3.70;;;3.30;;
25667;SDS011;18003;-33.830;151.202;2023-10-08T09:25:48;3.55;;;3.10;;
25667;SDS011;18003;-33.830;151.202;2023-10-08T09:28:15;5.67;;;3.42;;
25667;SDS011;18003;-33.830;151.202;2023-10-08T09:30:46;3.80;;;3.50;;
25667;SDS011;18003;-33.830;151.202;2023-10-08T09:35:46;3.58;;;3.27;;
25667;SDS011;18003;-33.830;151.202;2023-10-08T09:38:18;4.53;;;3.27;;
25667;SDS011;18003;-33.830;151.202;2023-10-08T09:40:53;3.92;;;3.30;;
25667;SDS011;18003;-33.830;151.202;2023-10-08T09:43:24;3.70;;;3.00;;
25667;SDS011;18003;-33.830;151.202;2023-10-08T09:46:13;3.10;;;2.80;;
25667;SDS011;18003;-33.830;151.202;2023-10-08T09:48:39;4.05;;;2.67;;
25667;SDS011;18003;-33.830;151.202;2023-10-08T09:51:10;3.75;;;2.87;;
25667;SDS011;18003;-33.830;151.202;2023-10-08T09:53:43;3.13;;;2.80;;
25667;SDS011;18003;-33.830;151.202;2023-10-08T09:56:13;3.17;;;2.87;;
25667;SDS011;18003;-33.830;151.202;2023-10-08T09:58:44;3.35;;;3.05;;
25667;SDS011;18003;-33.830;151.202;2023-10-08T10:01:18;2.90;;;2.70;;
25667;SDS011;18003;-33.830;151.202;2023-10-08T10:03:53;4.05;;;3.20;;
25667;SDS011;18003;-33.830;151.202;2023-10-08T10:06:24;3.33;;;2.77;;
25667;SDS011;18003;-33.830;151.202;2023-10-08T10:08:56;3.17;;;2.87;;
25667;SDS011;18003;-33.830;151.202;2023-10-08T10:11:30;3.95;;;2.83;;
25667;SDS011;18003;-33.830;151.202;2023-10-08T10:13:59;3.22;;;2.92;;
25667;SDS011;18003;-33.830;151.202;2023-10-08T10:16:30;3.40;;;3.20;;
25667;SDS011;18003;-33.830;151.202;2023-10-08T10:19:04;2.98;;;2.77;;
25667;SDS011;18003;-33.830;151.202;2023-10-08T10:21:34;2.98;;;2.77;;
25667;SDS011;18003;-33.830;151.202;2023-10-08T10:24:05;3.92;;;2.77;;
25667;SDS011;18003;-33.830;151.202;2023-10-08T10:26:36;3.37;;;2.45;;
25667;SDS011;18003;-33.830;151.202;2023-10-08T10:31:47;2.92;;;2.62;;
25667;SDS011;18003;-33.830;151.202;2023-10-08T10:34:17;3.95;;;3.05;;
25667;SDS011;18003;-33.830;151.202;2023-10-08T10:36:49;3.30;;;3.00;;
25667;SDS011;18003;-33.830;151.202;2023-10-08T10:39:21;3.67;;;2.60;;
25667;SDS011;18003;-33.830;151.202;2023-10-08T10:41:56;3.30;;;3.00;;
25667;SDS011;18003;-33.830;151.202;2023-10-08T10:44:30;2.95;;;2.55;;
25667;SDS011;18003;-33.830;151.202;2023-10-08T10:47:05;3.55;;;2.77;;
25667;SDS011;18003;-33.830;151.202;2023-10-08T10:49:46;3.45;;;3.12;;
25667;SDS011;18003;-33.830;151.202;2023-10-08T10:52:34;4.33;;;3.10;;
25667;SDS011;18003;-33.830;151.202;2023-10-08T10:55:21;4.08;;;2.80;;
25667;SDS011;18003;-33.830;151.202;2023-10-08T10:57:56;3.42;;;3.12;;
25667;SDS011;18003;-33.830;151.202;2023-10-08T11:00:33;3.90;;;3.00;;
25667;SDS011;18003;-33.830;151.202;2023-10-08T11:03:05;3.87;;;2.90;;
25667;SDS011;18003;-33.830;151.202;2023-10-08T11:05:50;3.17;;;2.83;;
25667;SDS011;18003;-33.830;151.202;2023-10-08T11:08:18;3.25;;;2.80;;
25667;SDS011;18003;-33.830;151.202;2023-10-08T11:10:51;3.77;;;3.00;;
25667;SDS011;18003;-33.830;151.202;2023-10-08T11:13:23;3.87;;;3.40;;
25667;SDS011;18003;-33.830;151.202;2023-10-08T11:15:55;3.87;;;2.58;;
25667;SDS011;18003;-33.830;151.202;2023-10-08T11:18:26;3.40;;;2.90;;
25667;SDS011;18003;-33.830;151.202;2023-10-08T11:21:07;3.55;;;2.37;;
25667;SDS011;18003;-33.830;151.202;2023-10-08T11:23:42;3.83;;;2.65;;
25667;SDS011;18003;-33.830;151.202;2023-10-08T11:26:24;2.80;;;2.50;;
25667;SDS011;18003;-33.830;151.202;2023-10-08T11:29:02;4.62;;;2.80;;
25667;SDS011;18003;-33.830;151.202;2023-10-08T11:34:10;3.10;;;2.90;;
25667;SDS011;18003;-33.830;151.202;2023-10-08T11:36:40;5.25;;;3.10;;
25667;SDS011;18003;-33.830;151.202;2023-10-08T11:39:19;3.85;;;3.20;;
25667;SDS011;18003;-33.830;151.202;2023-10-08T11:44:33;4.12;;;3.47;;
25667;SDS011;18003;-33.830;151.202;2023-10-08T11:47:03;4.00;;;3.40;;
25667;SDS011;18003;-33.830;151.202;2023-10-08T11:49:41;4.20;;;3.40;;
25667;SDS011;18003;-33.830;151.202;2023-10-08T12:16:47;4.50;;;3.17;;
25667;SDS011;18003;-33.830;151.202;2023-10-08T12:19:18;3.92;;;3.00;;
25667;SDS011;18003;-33.830;151.202;2023-10-08T12:21:48;3.50;;;3.20;;
25667;SDS011;18003;-33.830;151.202;2023-10-08T12:24:19;3.50;;;3.20;;
25667;SDS011;18003;-33.830;151.202;2023-10-08T12:26:49;3.85;;;3.40;;
25667;SDS011;18003;-33.830;151.202;2023-10-08T12:29:20;4.17;;;3.50;;
25667;SDS011;18003;-33.830;151.202;2023-10-08T12:31:51;3.92;;;3.50;;
25667;SDS011;18003;-33.830;151.202;2023-10-08T12:34:22;3.80;;;3.10;;
25667;SDS011;18003;-33.830;151.202;2023-10-08T12:39:41;4.33;;;3.45;;
25667;SDS011;18003;-33.830;151.202;2023-10-08T12:42:21;3.10;;;2.80;;
25667;SDS011;18003;-33.830;151.202;2023-10-08T12:47:37;3.27;;;2.70;;
25667;SDS011;18003;-33.830;151.202;2023-10-08T12:50:08;3.25;;;2.95;;
25667;SDS011;18003;-33.830;151.202;2023-10-08T12:52:40;3.47;;;3.08;;
25667;SDS011;18003;-33.830;151.202;2023-10-08T12:55:12;5.10;;;3.40;;
25667;SDS011;18003;-33.830;151.202;2023-10-08T12:57:43;3.45;;;3.15;;
25667;SDS011;18003;-33.830;151.202;2023-10-08T13:00:14;4.80;;;3.10;;
25667;SDS011;18003;-33.830;151.202;2023-10-08T13:05:15;3.45;;;3.12;;
25667;SDS011;18003;-33.830;151.202;2023-10-08T13:07:47;3.40;;;3.10;;
25667;SDS011;18003;-33.830;151.202;2023-10-08T13:10:17;4.05;;;3.10;;
25667;SDS011;18003;-33.830;151.202;2023-10-08T13:12:49;3.17;;;2.87;;
25667;SDS011;18003;-33.830;151.202;2023-10-08T13:15:19;3.62;;;3.00;;
25667;SDS011;18003;-33.830;151.202;2023-10-08T13:17:50;4.97;;;2.80;;
25667;SDS011;18003;-33.830;151.202;2023-10-08T13:20:23;3.35;;;2.92;;
25667;SDS011;18003;-33.830;151.202;2023-10-08T13:22:54;5.70;;;2.90;;
25667;SDS011;18003;-33.830;151.202;2023-10-08T13:25:24;4.70;;;3.00;;
25667;SDS011;18003;-33.830;151.202;2023-10-08T13:27:54;3.52;;;2.98;;
25667;SDS011;18003;-33.830;151.202;2023-10-08T13:30:24;3.20;;;2.90;;
25667;SDS011;18003;-33.830;151.202;2023-10-08T13:32:54;3.00;;;2.80;;
25667;SDS011;18003;-33.830;151.202;2023-10-08T13:35:25;4.30;;;3.08;;
25667;SDS011;18003;-33.830;151.202;2023-10-08T13:37:56;3.80;;;2.80;;
25667;SDS011;18003;-33.830;151.202;2023-10-08T13:40:27;3.02;;;2.90;;
25667;SDS011;18003;-33.830;151.202;2023-10-08T13:42:58;3.05;;;2.80;;
25667;SDS011;18003;-33.830;151.202;2023-10-08T13:45:28;3.45;;;2.70;;
25667;SDS011;18003;-33.830;151.202;2023-10-08T13:48:00;2.85;;;2.65;;
25667;SDS011;18003;-33.830;151.202;2023-10-08T13:50:31;3.47;;;2.90;;
25667;SDS011;18003;-33.830;151.202;2023-10-08T13:53:02;5.22;;;2.80;;
25667;SDS011;18003;-33.830;151.202;2023-10-08T13:55:33;3.33;;;2.90;;
25667;SDS011;18003;-33.830;151.202;2023-10-08T13:58:03;3.67;;;3.05;;
25667;SDS011;18003;-33.830;151.202;2023-10-08T14:00:34;3.02;;;2.70;;
25667;SDS011;18003;-33.830;151.202;2023-10-08T14:03:05;3.10;;;2.80;;
25667;SDS011;18003;-33.830;151.202;2023-10-08T14:05:41;3.35;;;2.77;;
25667;SDS011;18003;-33.830;151.202;2023-10-08T14:08:07;3.15;;;2.85;;
25667;SDS011;18003;-33.830;151.202;2023-10-08T14:10:39;3.22;;;2.90;;
25667;SDS011;18003;-33.830;151.202;2023-10-08T14:13:10;4.23;;;3.10;;
25667;SDS011;18003;-33.830;151.202;2023-10-08T14:15:41;3.47;;;3.17;;
25667;SDS011;18003;-33.830;151.202;2023-10-08T14:18:12;3.67;;;3.40;;
25667;SDS011;18003;-33.830;151.202;2023-10-08T14:20:47;3.15;;;2.90;;
25667;SDS011;18003;-33.830;151.202;2023-10-08T14:23:18;3.37;;;3.08;;
25667;SDS011;18003;-33.830;151.202;2023-10-08T14:25:52;3.08;;;2.85;;
25667;SDS011;18003;-33.830;151.202;2023-10-08T14:28:23;3.75;;;2.65;;
25667;SDS011;18003;-33.830;151.202;2023-10-08T14:30:54;3.20;;;2.90;;
25667;SDS011;18003;-33.830;151.202;2023-10-08T14:33:26;3.30;;;3.00;;
25667;SDS011;18003;-33.830;151.202;2023-10-08T14:35:57;4.35;;;2.90;;
25667;SDS011;18003;-33.830;151.202;2023-10-08T14:38:44;4.15;;;3.00;;
25667;SDS011;18003;-33.830;151.202;2023-10-08T14:41:32;3.22;;;2.92;;
25667;SDS011;18003;-33.830;151.202;2023-10-08T14:44:19;2.92;;;2.83;;
25667;SDS011;18003;-33.830;151.202;2023-10-08T14:46:50;3.30;;;3.00;;
25667;SDS011;18003;-33.830;151.202;2023-10-08T14:49:21;4.70;;;3.10;;
25667;SDS011;18003;-33.830;151.202;2023-10-08T14:51:52;3.00;;;2.80;;
25667;SDS011;18003;-33.830;151.202;2023-10-08T14:54:22;3.43;;;3.13;;
25667;SDS011;18003;-33.830;151.202;2023-10-08T14:56:52;3.58;;;2.90;;
25667;SDS011;18003;-33.830;151.202;2023-10-08T14:59:23;3.10;;;2.80;;
25667;SDS011;18003;-33.830;151.202;2023-10-08T15:01:57;3.08;;;2.70;;
25667;SDS011;18003;-33.830;151.202;2023-10-08T15:04:27;3.02;;;2.70;;
25667;SDS011;18003;-33.830;151.202;2023-10-08T15:06:59;3.75;;;3.02;;
25667;SDS011;18003;-33.830;151.202;2023-10-08T15:09:29;4.58;;;3.10;;
25667;SDS011;18003;-33.830;151.202;2023-10-08T15:11:59;2.92;;;2.70;;
25667;SDS011;18003;-33.830;151.202;2023-10-08T15:14:30;3.30;;;3.00;;
25667;SDS011;18003;-33.830;151.202;2023-10-08T15:17:00;3.12;;;2.92;;
25667;SDS011;18003;-33.830;151.202;2023-10-08T15:19:31;3.85;;;2.95;;
25667;SDS011;18003;-33.830;151.202;2023-10-08T15:22:01;3.25;;;2.95;;
25667;SDS011;18003;-33.830;151.202;2023-10-08T15:24:32;3.67;;;3.05;;
25667;SDS011;18003;-33.830;151.202;2023-10-08T15:27:03;3.42;;;2.98;;
25667;SDS011;18003;-33.830;151.202;2023-10-08T15:32:04;4.42;;;2.92;;
25667;SDS011;18003;-33.830;151.202;2023-10-08T15:34:34;3.47;;;2.70;;
25667;SDS011;18003;-33.830;151.202;2023-10-08T15:37:05;3.05;;;2.80;;
25667;SDS011;18003;-33.830;151.202;2023-10-08T15:39:35;2.92;;;2.70;;
25667;SDS011;18003;-33.830;151.202;2023-10-08T15:42:07;3.00;;;2.62;;
25667;SDS011;18003;-33.830;151.202;2023-10-08T15:44:37;3.10;;;2.77;;
25667;SDS011;18003;-33.830;151.202;2023-10-08T15:47:08;3.70;;;2.90;;
25667;SDS011;18003;-33.830;151.202;2023-10-08T15:49:38;2.90;;;2.60;;
25667;SDS011;18003;-33.830;151.202;2023-10-08T15:52:08;3.15;;;2.80;;
25667;SDS011;18003;-33.830;151.202;2023-10-08T15:54:40;3.15;;;2.87;;
25667;SDS011;18003;-33.830;151.202;2023-10-08T15:57:10;3.05;;;2.75;;